createdAt,value
2022-08-14T00:00:20.579Z,44.08
2022-08-14T00:02:48.317Z,33.53
2022-08-14T00:05:18.635Z,30.33
2022-08-14T00:07:46.422Z,35.00
2022-08-14T00:10:51.492Z,38.72
2022-08-14T00:13:07.044Z,33.33
2022-08-14T00:15:43.484Z,25.77
2022-08-14T00:18:14.668Z,27.65
2022-08-14T00:20:58.201Z,28.67
2022-08-14T00:23:26.574Z,37.90
2022-08-14T00:26:05.538Z,29.75
2022-08-14T00:28:35.529Z,28.98
2022-08-14T00:31:05.491Z,41.75
2022-08-14T00:33:50.616Z,32.03
2022-08-14T00:36:35.225Z,33.72
2022-08-14T00:39:14.389Z,34.85
2022-08-14T00:41:42.490Z,31.10
2022-08-14T00:44:10.614Z,25.42
2022-08-14T00:46:38.821Z,29.52
2022-08-14T00:49:08.254Z,28.00
2022-08-14T00:51:38.843Z,30.63
2022-08-14T00:54:20.831Z,30.95
2022-08-14T00:56:55.065Z,23.13
2022-08-14T00:59:25.991Z,30.63
2022-08-14T01:01:58.335Z,34.28
2022-08-14T01:04:38.002Z,46.28
2022-08-14T01:07:19.965Z,47.00
2022-08-14T01:09:56.335Z,52.55
2022-08-14T01:12:27.336Z,44.63
2022-08-14T01:15:02.915Z,42.92
2022-08-14T01:17:52.040Z,45.10
2022-08-14T01:20:47.136Z,48.97
2022-08-14T01:23:19.000Z,44.92
2022-08-14T01:25:51.370Z,53.35
2022-08-14T01:28:46.831Z,55.47
2022-08-14T01:31:15.716Z,41.63
2022-08-14T01:34:00.263Z,44.28
2022-08-14T01:36:37.135Z,37.17
2022-08-14T01:39:13.647Z,37.00
2022-08-14T01:41:43.958Z,50.10
2022-08-14T01:44:32.007Z,39.40
2022-08-14T01:47:11.840Z,34.05
2022-08-14T01:49:45.785Z,33.17
2022-08-14T01:52:34.548Z,36.83
2022-08-14T01:55:01.608Z,36.67
2022-08-14T01:57:49.475Z,20.20
2022-08-14T02:00:18.172Z,16.77
2022-08-14T02:02:46.601Z,15.38
2022-08-14T02:05:14.487Z,17.77
2022-08-14T02:07:55.359Z,26.27
2022-08-14T02:10:29.357Z,20.70
2022-08-14T02:12:57.586Z,19.58
2022-08-14T02:15:26.778Z,29.50
2022-08-14T02:17:53.787Z,26.40
2022-08-14T02:20:23.834Z,22.23
2022-08-14T02:22:54.689Z,24.42
2022-08-14T02:25:22.631Z,27.60
2022-08-14T02:28:24.312Z,24.75
2022-08-14T02:30:45.377Z,23.85
2022-08-14T02:33:12.792Z,19.20
2022-08-14T02:35:43.574Z,18.65
2022-08-14T02:38:11.865Z,21.95
2022-08-14T02:40:58.205Z,18.77
2022-08-14T02:43:37.114Z,16.02
2022-08-14T02:46:13.852Z,26.63
2022-08-14T02:51:34.960Z,29.48
2022-08-14T02:54:08.280Z,23.45
2022-08-14T02:57:16.578Z,15.65
2022-08-14T02:59:33.405Z,20.20
2022-08-14T03:02:02.318Z,22.20
2022-08-14T03:04:31.173Z,21.45
2022-08-14T03:07:07.705Z,14.45
2022-08-14T03:09:41.923Z,19.10
2022-08-14T03:12:31.432Z,15.57
2022-08-14T03:15:09.138Z,15.57
2022-08-14T03:17:58.258Z,17.30
2022-08-14T03:20:29.376Z,25.65
2022-08-14T03:23:03.036Z,21.33
2022-08-14T03:25:33.502Z,15.00
2022-08-14T03:28:14.880Z,21.75
2022-08-14T03:30:59.848Z,18.70
2022-08-14T03:33:28.010Z,20.05
2022-08-14T03:37:51.591Z,31.88
2022-08-14T03:39:14.530Z,25.10
2022-08-14T03:41:48.342Z,26.95
2022-08-14T03:45:25.503Z,18.98
2022-08-14T03:47:03.033Z,18.42
2022-08-14T03:49:30.450Z,17.15
2022-08-14T03:52:00.569Z,19.88
2022-08-14T03:54:29.537Z,19.58
2022-08-14T03:57:02.880Z,18.35
2022-08-14T03:59:32.394Z,14.15
2022-08-14T04:02:02.128Z,21.05
2022-08-14T04:04:31.576Z,16.65
2022-08-14T04:07:00.179Z,13.57
2022-08-14T04:09:27.617Z,21.95
2022-08-14T04:11:56.299Z,19.08
2022-08-14T04:14:25.336Z,24.45
2022-08-14T04:16:52.269Z,16.30
2022-08-14T04:19:20.069Z,20.35
2022-08-14T04:22:02.269Z,19.48
2022-08-14T04:24:38.644Z,20.10
2022-08-14T04:27:09.668Z,24.05
2022-08-14T04:29:42.543Z,24.67
2022-08-14T04:33:00.116Z,23.60
2022-08-14T04:34:58.024Z,35.20
2022-08-14T04:37:45.139Z,21.60
2022-08-14T04:40:31.956Z,28.00
2022-08-14T04:43:18.141Z,24.00
2022-08-14T04:45:51.425Z,20.10
2022-08-14T04:48:39.694Z,23.90
2022-08-14T04:51:10.878Z,23.52
2022-08-14T04:53:43.792Z,29.75
2022-08-14T04:56:30.863Z,27.63
2022-08-14T04:59:10.184Z,25.13
2022-08-14T05:01:48.922Z,25.05
2022-08-14T05:04:21.217Z,26.70
2022-08-14T05:06:54.001Z,23.92
2022-08-14T05:09:24.742Z,18.13
2022-08-14T05:11:56.734Z,13.95
2022-08-14T05:14:46.231Z,17.02
2022-08-14T05:17:21.785Z,13.00
2022-08-14T05:21:54.427Z,15.75
2022-08-14T05:22:36.142Z,16.13
2022-08-14T05:25:04.903Z,20.08
2022-08-14T05:27:31.856Z,16.15
2022-08-14T05:29:58.879Z,19.92
2022-08-14T05:32:27.187Z,12.70
2022-08-14T05:34:59.462Z,16.23
2022-08-14T05:37:28.339Z,14.35
2022-08-14T05:39:58.475Z,18.25
2022-08-14T05:42:28.967Z,14.27
2022-08-14T05:44:58.945Z,13.75
2022-08-14T05:47:33.734Z,10.35
2022-08-14T05:50:17.595Z,18.00
2022-08-14T05:52:48.356Z,14.85
2022-08-14T05:55:16.792Z,13.02
2022-08-14T05:58:05.775Z,15.98
2022-08-14T06:00:39.642Z,13.30
2022-08-14T06:03:09.411Z,11.80
2022-08-14T06:05:38.689Z,13.63
2022-08-14T06:08:31.349Z,13.02
2022-08-14T06:11:05.768Z,14.05
2022-08-14T06:13:44.448Z,15.23
2022-08-14T06:16:17.749Z,12.82
2022-08-14T06:18:47.551Z,17.33
2022-08-14T06:21:15.978Z,15.02
2022-08-14T06:23:44.588Z,15.82
2022-08-14T06:26:16.404Z,15.10
2022-08-14T06:28:47.949Z,12.98
2022-08-14T06:31:22.677Z,16.30
2022-08-14T06:35:09.553Z,16.85
2022-08-14T06:36:39.479Z,17.38
2022-08-14T06:39:08.141Z,19.38
2022-08-14T06:41:57.953Z,13.80
2022-08-14T06:44:30.890Z,14.88
2022-08-14T06:47:02.029Z,15.70
2022-08-14T06:49:30.210Z,16.90
2022-08-14T06:51:57.915Z,13.40
2022-08-14T06:54:31.647Z,12.93
2022-08-14T06:56:59.217Z,17.25
2022-08-14T06:59:26.405Z,14.27
2022-08-14T07:02:13.221Z,12.35
2022-08-14T07:04:59.203Z,12.27
2022-08-14T07:07:28.748Z,12.20
2022-08-14T07:09:55.863Z,11.85
2022-08-14T07:12:54.419Z,16.92
2022-08-14T07:15:11.170Z,17.90
2022-08-14T07:17:52.194Z,14.07
2022-08-14T07:20:31.214Z,13.75
2022-08-14T07:23:08.017Z,15.30
2022-08-14T07:25:42.179Z,17.40
2022-08-14T07:28:20.878Z,12.32
2022-08-14T07:30:50.661Z,20.98
2022-08-14T07:33:24.328Z,12.88
2022-08-14T07:35:58.223Z,14.97
2022-08-14T07:41:03.779Z,14.82
2022-08-14T07:43:39.773Z,12.50
2022-08-14T07:46:07.091Z,12.45
2022-08-14T07:48:41.568Z,14.70
2022-08-14T07:51:11.221Z,14.25
2022-08-14T07:53:40.975Z,11.85
2022-08-14T07:56:21.766Z,12.80
2022-08-14T07:58:58.764Z,11.90
2022-08-14T08:01:29.816Z,10.13
2022-08-14T08:04:00.170Z,15.85
2022-08-14T08:06:29.652Z,11.98
2022-08-14T08:09:01.485Z,7.97
2022-08-14T08:11:34.756Z,8.90
2022-08-14T08:14:17.264Z,9.75
2022-08-14T08:16:47.536Z,15.77
2022-08-14T08:19:19.414Z,10.88
2022-08-14T08:21:47.718Z,16.15
2022-08-14T08:24:19.721Z,10.82
2022-08-14T08:26:50.476Z,11.18
2022-08-14T08:29:28.201Z,12.70
2022-08-14T08:32:01.851Z,17.48
2022-08-14T08:34:45.130Z,10.85
2022-08-14T08:37:14.368Z,9.82
2022-08-14T08:40:01.362Z,9.30
2022-08-14T08:42:31.361Z,14.15
2022-08-14T08:44:58.869Z,16.35
2022-08-14T08:47:26.344Z,11.07
2022-08-14T08:50:00.055Z,13.20
2022-08-14T08:52:31.296Z,10.35
2022-08-14T08:55:13.673Z,10.75
2022-08-14T08:57:40.614Z,9.60
2022-08-14T09:00:25.507Z,9.73
2022-08-14T09:02:56.650Z,10.15
2022-08-14T09:05:24.471Z,11.90
2022-08-14T09:07:56.371Z,11.68
2022-08-14T09:10:27.243Z,11.02
2022-08-14T09:12:56.311Z,16.05
2022-08-14T09:15:24.246Z,14.02
2022-08-14T09:17:52.803Z,13.63
2022-08-14T09:20:26.413Z,11.65
2022-08-14T09:22:56.996Z,14.27
2022-08-14T09:26:01.250Z,15.85
2022-08-14T09:28:12.138Z,12.55
2022-08-14T09:30:50.398Z,10.35
2022-08-14T09:33:27.490Z,10.20
2022-08-14T09:36:18.809Z,22.48
2022-08-14T09:39:02.034Z,11.10
2022-08-14T09:42:20.722Z,12.93
2022-08-14T09:44:38.981Z,12.52
2022-08-14T09:47:10.765Z,18.98
2022-08-14T09:49:47.161Z,8.57
2022-08-14T09:52:32.997Z,15.68
2022-08-14T09:55:02.882Z,12.95
2022-08-14T09:57:34.049Z,9.10
2022-08-14T10:00:11.944Z,8.88
2022-08-14T10:03:05.137Z,19.35
2022-08-14T10:05:37.902Z,18.35
2022-08-14T10:08:25.337Z,9.38
2022-08-14T10:10:57.237Z,11.73
2022-08-14T10:13:42.811Z,11.35
2022-08-14T10:16:27.439Z,10.30
2022-08-14T10:19:07.514Z,11.30
2022-08-14T10:21:58.432Z,9.85
2022-08-14T10:24:40.256Z,12.45
2022-08-14T10:27:23.474Z,12.27
2022-08-14T10:30:01.084Z,9.95
2022-08-14T10:32:36.563Z,9.18
2022-08-14T10:35:14.377Z,12.15
2022-08-14T10:37:48.595Z,18.50
2022-08-14T10:40:37.810Z,9.70
2022-08-14T10:43:26.239Z,11.82
2022-08-14T10:46:21.495Z,8.30
2022-08-14T10:49:00.929Z,8.05
2022-08-14T10:51:33.855Z,6.70
2022-08-14T10:54:35.348Z,9.82
2022-08-14T10:56:58.879Z,9.45
2022-08-14T10:59:30.985Z,8.25
2022-08-14T11:02:03.368Z,8.20
2022-08-14T11:04:31.254Z,10.68
2022-08-14T11:06:59.381Z,9.93
2022-08-14T11:09:31.636Z,7.28
2022-08-14T11:12:34.392Z,6.97
2022-08-14T11:15:02.123Z,24.02
2022-08-14T11:17:33.243Z,8.77
2022-08-14T11:20:02.803Z,10.45
2022-08-14T11:22:52.888Z,13.98
2022-08-14T11:25:21.345Z,9.93
2022-08-14T11:27:49.093Z,9.73
2022-08-14T11:30:50.673Z,10.35
2022-08-14T11:33:09.099Z,11.80
2022-08-14T11:35:47.418Z,11.40
2022-08-14T11:38:17.092Z,7.03
2022-08-14T11:40:46.692Z,13.35
2022-08-14T11:43:16.451Z,7.85
2022-08-14T11:45:48.027Z,10.90
2022-08-14T11:49:04.126Z,8.90
2022-08-14T11:51:17.947Z,8.55
2022-08-14T11:53:51.489Z,13.88
2022-08-14T11:56:25.719Z,11.87
2022-08-14T11:58:56.845Z,9.82
2022-08-14T12:01:28.731Z,9.85
2022-08-14T12:04:01.150Z,10.13
2022-08-14T12:06:52.681Z,16.30
2022-08-14T12:09:36.398Z,8.57
2022-08-14T12:12:16.280Z,15.55
2022-08-14T12:15:02.415Z,10.00
2022-08-14T12:17:47.266Z,12.30
2022-08-14T12:20:16.177Z,10.23
2022-08-14T12:22:57.513Z,9.95
2022-08-14T12:25:25.220Z,9.90
2022-08-14T12:27:59.249Z,9.05
2022-08-14T12:30:42.380Z,11.93
2022-08-14T12:33:33.245Z,9.23
2022-08-14T12:36:07.401Z,13.85
2022-08-14T12:38:45.134Z,12.85
2022-08-14T12:41:16.491Z,14.25
2022-08-14T12:44:09.230Z,11.75
2022-08-14T12:46:46.864Z,10.30
2022-08-14T12:49:17.683Z,11.35
2022-08-14T12:51:57.355Z,9.13
2022-08-14T12:54:27.660Z,10.20
2022-08-14T12:57:19.435Z,13.55
2022-08-14T12:59:47.507Z,9.93
2022-08-14T13:02:28.662Z,8.93
2022-08-14T13:04:56.970Z,15.13
2022-08-14T13:07:27.159Z,10.73
2022-08-14T13:10:00.783Z,10.93
2022-08-14T13:13:12.082Z,11.68
2022-08-14T13:15:36.625Z,12.82
2022-08-14T13:18:05.614Z,10.18
2022-08-14T13:20:33.538Z,15.27
2022-08-14T13:23:02.490Z,11.65
2022-08-14T13:25:29.841Z,9.45
2022-08-14T13:28:00.015Z,10.32
2022-08-14T13:30:27.971Z,12.75
2022-08-14T13:32:58.006Z,10.57
2022-08-14T13:35:26.216Z,10.63
2022-08-14T13:37:54.594Z,10.55
2022-08-14T13:40:26.295Z,11.85
2022-08-14T13:42:57.149Z,7.35
2022-08-14T13:45:34.060Z,7.40
2022-08-14T13:48:30.712Z,8.73
2022-08-14T13:51:03.368Z,4.70
2022-08-14T13:53:38.046Z,7.65
2022-08-14T13:56:14.765Z,5.20
2022-08-14T13:58:57.240Z,9.77
2022-08-14T14:01:27.924Z,5.80
2022-08-14T14:03:56.549Z,7.20
2022-08-14T14:06:27.146Z,8.57
2022-08-14T14:08:59.066Z,7.97
2022-08-14T14:11:26.415Z,8.07
2022-08-14T14:14:00.373Z,6.57
2022-08-14T14:16:30.722Z,6.10
2022-08-14T14:19:08.949Z,5.55
2022-08-14T14:21:40.425Z,10.55
2022-08-14T14:24:08.312Z,8.18
2022-08-14T14:29:14.942Z,6.25
2022-08-14T14:31:47.022Z,6.70
2022-08-14T14:34:29.115Z,6.28
2022-08-14T14:37:02.870Z,6.00
2022-08-14T14:39:37.878Z,6.93
2022-08-14T14:42:31.597Z,8.13
2022-08-14T14:45:07.654Z,7.57
2022-08-14T14:47:36.844Z,8.30
2022-08-14T14:50:05.465Z,9.07
2022-08-14T14:52:37.062Z,10.18
2022-08-14T14:55:08.669Z,6.45
2022-08-14T14:57:36.394Z,10.32
2022-08-14T15:00:12.989Z,7.60
2022-08-14T15:02:51.430Z,7.85
2022-08-14T15:05:20.235Z,8.95
2022-08-14T15:07:49.756Z,5.13
2022-08-14T15:10:28.349Z,6.53
2022-08-14T15:13:04.057Z,5.65
2022-08-14T15:15:33.156Z,7.18
2022-08-14T15:18:01.178Z,7.32
2022-08-14T15:20:30.101Z,6.10
2022-08-14T15:23:12.477Z,9.10
2022-08-14T15:25:53.024Z,8.98
2022-08-14T15:28:21.791Z,6.65
2022-08-14T15:30:58.840Z,6.55
2022-08-14T15:34:33.216Z,9.70
2022-08-14T15:36:35.315Z,8.88
2022-08-14T15:39:02.922Z,7.22
2022-08-14T15:41:33.634Z,10.70
2022-08-14T15:44:09.573Z,6.65
2022-08-14T15:46:52.908Z,9.38
2022-08-14T15:49:20.269Z,7.13
2022-08-14T15:51:48.355Z,6.25
2022-08-14T15:54:18.198Z,6.20
2022-08-14T15:57:04.725Z,5.80
2022-08-14T15:59:53.974Z,12.27
2022-08-14T16:02:27.747Z,9.23
2022-08-14T16:04:56.266Z,6.15
2022-08-14T16:07:26.941Z,6.50
2022-08-14T16:10:18.310Z,12.05
2022-08-14T16:12:46.664Z,7.20
2022-08-14T16:15:22.679Z,6.90
2022-08-14T16:17:51.698Z,5.00
2022-08-14T16:20:41.733Z,5.60
2022-08-14T16:23:11.699Z,6.85
2022-08-14T16:25:44.940Z,6.65
2022-08-14T16:28:13.416Z,5.05
2022-08-14T16:30:55.141Z,7.13
2022-08-14T16:33:56.621Z,5.90
2022-08-14T16:36:30.726Z,6.05
2022-08-14T16:39:02.037Z,7.68
2022-08-14T16:41:29.579Z,5.88
2022-08-14T16:43:58.854Z,6.68
2022-08-14T16:46:31.736Z,5.38
2022-08-14T16:49:00.768Z,6.85
2022-08-14T16:51:31.100Z,7.88
2022-08-14T16:54:04.863Z,10.85
2022-08-14T16:59:20.410Z,7.50
2022-08-14T17:02:05.227Z,5.75
2022-08-14T17:04:34.836Z,7.35
2022-08-14T17:07:15.451Z,9.35
2022-08-14T17:09:48.696Z,5.82
2022-08-14T17:12:28.593Z,5.13
2022-08-14T17:15:10.072Z,6.97
2022-08-14T17:17:40.807Z,6.97
2022-08-14T17:20:54.527Z,13.98
2022-08-14T17:22:59.184Z,10.30
2022-08-14T17:25:30.034Z,6.53
2022-08-14T17:28:51.771Z,7.45
2022-08-14T17:31:06.029Z,7.22
2022-08-14T17:33:40.813Z,10.80
2022-08-14T17:36:21.830Z,7.90
2022-08-14T17:39:00.096Z,7.75
2022-08-14T17:41:36.134Z,7.97
2022-08-14T17:44:14.399Z,7.13
2022-08-14T17:46:58.574Z,6.68
2022-08-14T17:49:32.362Z,8.30
2022-08-14T17:52:17.515Z,8.60
2022-08-14T17:54:52.734Z,8.70
2022-08-14T17:57:28.552Z,7.70
2022-08-14T17:59:57.162Z,7.20
2022-08-14T18:02:31.566Z,7.20
2022-08-14T18:05:02.768Z,8.52
2022-08-14T18:08:31.620Z,8.52
2022-08-14T18:10:52.009Z,8.20
2022-08-14T18:13:10.614Z,6.90
2022-08-14T18:15:41.417Z,6.93
2022-08-14T18:18:11.239Z,8.63
2022-08-14T18:21:42.925Z,7.38
2022-08-14T18:23:28.222Z,10.75
2022-08-14T18:25:57.223Z,6.70
2022-08-14T18:28:51.176Z,7.30
2022-08-14T18:31:22.878Z,6.05
2022-08-14T18:33:58.254Z,9.25
2022-08-14T18:36:48.263Z,7.50
2022-08-14T18:39:26.184Z,6.57
2022-08-14T18:42:23.664Z,7.40
2022-08-14T18:44:51.336Z,7.88
2022-08-14T18:47:22.483Z,5.90
2022-08-14T18:49:53.305Z,5.28
2022-08-14T18:52:39.445Z,9.90
2022-08-14T18:57:57.617Z,7.53
2022-08-14T19:00:32.904Z,6.40
2022-08-14T19:03:01.169Z,9.45
2022-08-14T19:05:47.644Z,7.43
2022-08-14T19:08:26.554Z,7.88
2022-08-14T19:10:59.498Z,8.57
2022-08-14T19:13:44.440Z,6.78
2022-08-14T19:16:36.845Z,9.73
2022-08-14T19:19:06.992Z,7.10
2022-08-14T19:21:55.314Z,8.93
2022-08-14T19:24:43.764Z,12.25
2022-08-14T19:27:22.947Z,14.27
2022-08-14T19:30:20.481Z,5.30
2022-08-14T19:32:57.025Z,8.20
2022-08-14T19:35:48.649Z,8.50
2022-08-14T19:38:48.558Z,8.38
2022-08-14T19:42:28.374Z,7.60
2022-08-14T19:44:58.121Z,14.90
2022-08-14T19:47:38.820Z,17.27
2022-08-14T19:50:37.778Z,20.52
2022-08-14T19:53:12.077Z,31.33
2022-08-14T19:55:49.687Z,31.63
2022-08-14T19:58:16.700Z,41.80
2022-08-14T20:00:56.086Z,23.58
2022-08-14T20:03:25.008Z,18.52
2022-08-14T20:06:05.643Z,27.98
2022-08-14T20:11:02.421Z,19.00
2022-08-14T20:12:00.771Z,15.25
2022-08-14T20:14:51.883Z,17.55
2022-08-14T20:22:34.707Z,9.82
2022-08-14T20:24:47.582Z,8.45
2022-08-14T20:27:34.172Z,12.65
2022-08-14T20:30:29.868Z,15.00
2022-08-14T20:32:57.971Z,9.30
2022-08-14T20:35:37.992Z,9.43
2022-08-14T20:38:31.644Z,18.02
2022-08-14T20:41:06.521Z,7.78
2022-08-14T20:43:55.754Z,9.73
2022-08-14T20:46:38.675Z,10.65
2022-08-14T20:49:09.362Z,7.38
2022-08-14T20:51:54.668Z,9.93
2022-08-14T20:54:34.391Z,10.95
2022-08-14T20:57:08.250Z,8.95
2022-08-14T20:59:43.382Z,9.88
2022-08-14T21:02:34.283Z,9.43
2022-08-14T21:05:17.352Z,12.93
2022-08-14T21:07:50.771Z,16.58
2022-08-14T21:10:33.367Z,13.55
2022-08-14T21:13:25.830Z,17.17
2022-08-14T21:15:57.291Z,14.90
2022-08-14T21:18:31.860Z,13.65
2022-08-14T21:21:06.962Z,15.60
2022-08-14T21:23:54.008Z,13.38
2022-08-14T21:26:52.501Z,18.35
2022-08-14T21:29:14.620Z,17.33
2022-08-14T21:31:43.277Z,27.90
2022-08-14T21:34:31.435Z,25.90
2022-08-14T21:37:09.165Z,23.92
2022-08-14T21:39:38.392Z,22.85
2022-08-14T21:42:06.317Z,24.70
2022-08-14T21:44:42.878Z,24.98
2022-08-14T21:47:16.670Z,23.17
2022-08-14T21:49:46.234Z,19.95
2022-08-14T21:52:52.077Z,16.90
2022-08-14T21:55:10.607Z,22.92
2022-08-14T21:58:45.972Z,21.35
2022-08-14T22:00:39.612Z,16.75
2022-08-14T22:03:13.969Z,16.85
2022-08-14T22:05:41.935Z,21.10
2022-08-14T22:08:14.071Z,17.90
2022-08-14T22:10:44.818Z,15.77
2022-08-14T22:13:17.538Z,17.83
2022-08-14T22:15:49.721Z,21.55
2022-08-14T22:18:21.181Z,17.30
2022-08-14T22:20:53.781Z,13.77
2022-08-14T22:25:52.377Z,15.48
2022-08-14T22:28:33.286Z,14.40
2022-08-14T22:31:10.125Z,15.32
2022-08-14T22:33:39.550Z,11.48
2022-08-14T22:36:45.401Z,12.50
2022-08-14T22:39:13.107Z,11.88
2022-08-14T22:41:43.627Z,14.00
2022-08-14T22:44:32.485Z,19.63
2022-08-14T22:47:00.722Z,18.20
2022-08-14T22:50:31.316Z,20.95
2022-08-14T22:52:32.856Z,21.08
2022-08-14T22:55:00.985Z,24.42
2022-08-14T23:00:30.282Z,18.73
2022-08-14T23:10:31.132Z,16.05
2022-08-14T23:12:54.745Z,16.58
2022-08-14T23:15:23.793Z,22.10
2022-08-14T23:17:51.581Z,17.02
2022-08-14T23:20:21.442Z,14.52
2022-08-14T23:22:51.841Z,13.70
2022-08-14T23:25:56.773Z,17.42
2022-08-14T23:28:33.603Z,14.18
2022-08-14T23:30:59.036Z,12.30
2022-08-14T23:33:28.534Z,12.95
2022-08-14T23:35:59.078Z,12.38
2022-08-14T23:38:30.925Z,12.68
2022-08-14T23:41:11.617Z,14.48
2022-08-14T23:43:42.207Z,14.25
2022-08-14T23:46:12.849Z,14.43
2022-08-14T23:48:44.537Z,17.80
2022-08-14T23:51:20.016Z,15.05
2022-08-14T23:53:51.528Z,16.63
2022-08-14T23:56:32.308Z,16.23
2022-08-14T23:59:08.451Z,20.42
